Time;durP1;ratioP1;P1;durP2;ratioP2;P2;SDS_P1;SDS_P2;PMS_P1;PMS_P2;Temp;Humidity;BMP_temperature;BMP_pressure;BME280_temperature;BME280_humidity;BME280_pressure;Samples;Min_cycle;Max_cycle;Signal;HPM_P1;HPM_P2
2021/06/14 00:00:26;;;;;;;;;;;20.40;68.50;;;;;;5033580;28;1075;-67
2021/06/14 00:02:51;;;;;;;;;;;20.40;68.40;;;;;;5031963;28;1076;-65
2021/06/14 00:05:22;;;;;;;;;;;20.40;68.40;;;;;;5033077;28;1361;-66
2021/06/14 00:07:48;;;;;;;;;;;20.40;68.50;;;;;;5033188;28;1079;-65
2021/06/14 00:10:14;;;;;;;;;;;20.40;68.50;;;;;;5033360;28;1072;-66
2021/06/14 00:12:39;;;;;;;;;;;20.40;68.50;;;;;;5033459;28;1138;-65
2021/06/14 00:15:05;;;;;;;;;;;20.40;68.50;;;;;;5024718;28;1299;-66
2021/06/14 00:17:31;;;;;;;;;;;20.40;68.50;;;;;;5028301;28;1902;-66
2021/06/14 00:19:56;;;;;;;;;;;20.40;68.50;;;;;;5033158;28;1075;-65
2021/06/14 00:22:22;;;;;;;;;;;20.40;68.50;;;;;;5033006;28;1190;-66
2021/06/14 00:24:47;;;;;;;;;;;20.40;68.50;;;;;;5031471;28;1147;-66
2021/06/14 00:27:12;;;;;;;;;;;20.40;68.50;;;;;;5033142;28;1210;-66
2021/06/14 00:29:38;;;;;;;;;;;20.40;68.50;;;;;;5031798;28;1136;-66
2021/06/14 00:32:04;;;;;;;;;;;20.40;68.50;;;;;;5031724;28;1135;-66
2021/06/14 00:34:29;;;;;;;;;;;20.40;68.50;;;;;;5032144;28;1060;-67
2021/06/14 00:36:54;;;;;;;;;;;20.40;68.50;;;;;;5032651;28;1975;-65
2021/06/14 00:39:20;;;;;;;;;;;20.40;68.60;;;;;;5033060;28;1064;-65
2021/06/14 00:41:45;;;;;;;;;;;20.40;68.50;;;;;;5032252;28;1075;-68
2021/06/14 00:44:11;;;;;;;;;;;20.40;68.60;;;;;;5032574;28;1177;-65
2021/06/14 00:46:36;;;;;;;;;;;20.40;68.60;;;;;;5032783;28;1294;-66
2021/06/14 00:49:02;;;;;;;;;;;20.40;68.60;;;;;;5032416;28;1134;-66
2021/06/14 00:51:27;;;;;;;;;;;20.40;68.50;;;;;;5032695;28;1044;-65
2021/06/14 00:53:55;;;;;;;;;;;20.40;68.60;;;;;;5032398;28;1052;-65
2021/06/14 00:56:21;;;;;;;;;;;20.40;68.60;;;;;;5031385;28;1964;-65
2021/06/14 00:58:46;;;;;;;;;;;20.40;68.60;;;;;;5032574;28;1076;-66
2021/06/14 01:01:12;;;;;;;;;;;20.40;68.60;;;;;;5032791;28;1079;-65
2021/06/14 01:03:37;;;;;;;;;;;20.40;68.60;;;;;;5031862;28;1032;-66
2021/06/14 01:06:04;;;;;;;;;;;20.40;68.60;;;;;;5032564;28;1255;-66
2021/06/14 01:08:30;;;;;;;;;;;20.40;68.60;;;;;;5032701;28;1056;-66
2021/06/14 01:10:56;;;;;;;;;;;20.40;68.60;;;;;;5031519;28;1072;-65
2021/06/14 01:13:40;;;;;;;;;;;20.40;68.70;;;;;;5031192;28;1119;-66
2021/06/14 01:16:12;;;;;;;;;;;20.40;68.60;;;;;;5032314;28;1281;-66
2021/06/14 01:18:44;;;;;;;;;;;20.40;68.70;;;;;;5011822;28;1124;-66
2021/06/14 01:21:11;;;;;;;;;;;20.40;68.70;;;;;;5029406;28;1096;-66
2021/06/14 01:23:37;;;;;;;;;;;20.40;68.70;;;;;;5032130;28;1099;-66
2021/06/14 01:26:03;;;;;;;;;;;20.40;68.70;;;;;;5032268;28;1212;-65
2021/06/14 01:28:28;;;;;;;;;;;20.40;68.70;;;;;;5031304;28;1068;-65
2021/06/14 01:30:54;;;;;;;;;;;20.40;68.70;;;;;;5031084;28;1294;-66
2021/06/14 01:33:20;;;;;;;;;;;20.40;68.70;;;;;;5030847;28;1065;-65
2021/06/14 01:35:49;;;;;;;;;;;20.40;68.60;;;;;;5053441;22;2117;-70
2021/06/14 01:38:15;;;;;;;;;;;20.40;68.70;;;;;;5023106;28;1931;-71
2021/06/14 01:40:40;;;;;;;;;;;20.40;68.70;;;;;;5027971;28;1666;-71
2021/06/14 01:43:07;;;;;;;;;;;20.40;68.70;;;;;;5011263;28;1162;-71
2021/06/14 01:45:32;;;;;;;;;;;20.40;68.70;;;;;;5027987;28;1405;-71
2021/06/14 01:47:58;;;;;;;;;;;20.40;68.70;;;;;;5012735;28;910;-71
2021/06/14 01:50:25;;;;;;;;;;;20.40;68.70;;;;;;4995148;28;1901;-71
2021/06/14 01:52:51;;;;;;;;;;;20.40;68.70;;;;;;5011358;28;1320;-71
2021/06/14 01:55:16;;;;;;;;;;;20.40;68.70;;;;;;5013814;28;1456;-71
2021/06/14 01:57:42;;;;;;;;;;;20.40;68.70;;;;;;5014979;28;1955;-71
2021/06/14 02:00:07;;;;;;;;;;;20.40;68.70;;;;;;5014919;28;1677;-71
2021/06/14 02:02:33;;;;;;;;;;;20.40;68.70;;;;;;5016206;28;1157;-70
2021/06/14 02:04:58;;;;;;;;;;;20.40;68.70;;;;;;5015690;28;1292;-71
2021/06/14 02:07:24;;;;;;;;;;;20.40;68.70;;;;;;5014985;28;1638;-70
2021/06/14 02:09:49;;;;;;;;;;;20.40;68.70;;;;;;5016022;28;1728;-71
2021/06/14 02:12:15;;;;;;;;;;;20.40;68.70;;;;;;5014813;28;1386;-71
2021/06/14 02:14:43;;;;;;;;;;;20.40;68.70;;;;;;5015218;28;1449;-72
2021/06/14 02:17:09;;;;;;;;;;;20.40;68.70;;;;;;5014675;28;1902;-71
2021/06/14 02:19:36;;;;;;;;;;;20.40;68.80;;;;;;5008524;28;1724;-71
2021/06/14 02:22:02;;;;;;;;;;;20.40;68.50;;;;;;5005328;28;1371;-72
2021/06/14 02:24:28;;;;;;;;;;;20.40;68.60;;;;;;5009656;28;1212;-72
2021/06/14 02:26:53;;;;;;;;;;;20.40;68.40;;;;;;5004929;28;1329;-72
2021/06/14 02:29:19;;;;;;;;;;;20.40;68.40;;;;;;5006424;28;1408;-72
2021/06/14 02:31:44;;;;;;;;;;;20.40;68.40;;;;;;5006773;28;1089;-73
2021/06/14 02:34:10;;;;;;;;;;;20.40;68.40;;;;;;5014891;28;1171;-73
2021/06/14 02:36:35;;;;;;;;;;;20.40;68.50;;;;;;5015213;28;1965;-72
2021/06/14 02:39:02;;;;;;;;;;;20.40;68.60;;;;;;5012299;28;1155;-72
2021/06/14 02:41:28;;;;;;;;;;;20.40;68.70;;;;;;4988514;28;1334;-73
2021/06/14 02:43:53;;;;;;;;;;;20.40;68.70;;;;;;5006910;28;1301;-73
2021/06/14 02:46:19;;;;;;;;;;;20.40;68.70;;;;;;5002230;28;1406;-72
2021/06/14 02:48:45;;;;;;;;;;;20.40;68.70;;;;;;5007641;28;1165;-72
2021/06/14 02:51:11;;;;;;;;;;;20.40;68.60;;;;;;5014126;28;1072;-72
2021/06/14 02:53:36;;;;;;;;;;;20.40;68.50;;;;;;5009515;28;1211;-72
2021/06/14 02:56:08;;;;;;;;;;;20.40;68.20;;;;;;5004874;28;1314;-72
2021/06/14 02:58:37;;;;;;;;;;;20.40;68.40;;;;;;5007802;28;1974;-72
2021/06/14 03:01:03;;;;;;;;;;;20.40;68.50;;;;;;5005665;28;1349;-73
2021/06/14 03:03:29;;;;;;;;;;;20.40;68.60;;;;;;5010444;28;1368;-73
2021/06/14 03:05:55;;;;;;;;;;;20.40;68.60;;;;;;5006439;28;1353;-73
2021/06/14 03:08:20;;;;;;;;;;;20.40;68.60;;;;;;5008556;28;1223;-71
2021/06/14 03:10:46;;;;;;;;;;;20.40;68.70;;;;;;5005097;28;1380;-73
2021/06/14 03:13:11;;;;;;;;;;;20.40;68.70;;;;;;5008075;28;1219;-72
2021/06/14 03:15:36;;;;;;;;;;;20.40;68.70;;;;;;5004171;28;1289;-73
2021/06/14 03:18:02;;;;;;;;;;;20.40;68.70;;;;;;5006757;28;1907;-73
2021/06/14 03:20:27;;;;;;;;;;;20.40;68.60;;;;;;5006598;28;1310;-73
2021/06/14 03:22:53;;;;;;;;;;;20.40;68.70;;;;;;5008890;28;1136;-72
2021/06/14 03:25:18;;;;;;;;;;;20.40;68.70;;;;;;5005225;28;1533;-73
2021/06/14 03:27:44;;;;;;;;;;;20.40;68.70;;;;;;5006440;28;1208;-74
2021/06/14 03:30:10;;;;;;;;;;;20.40;68.80;;;;;;5005138;28;1309;-74
2021/06/14 03:32:38;;;;;;;;;;;20.40;68.70;;;;;;5012793;28;1156;-71
2021/06/14 03:35:03;;;;;;;;;;;20.40;68.70;;;;;;5014568;28;1108;-71
2021/06/14 03:37:29;;;;;;;;;;;20.40;68.70;;;;;;5014015;28;1902;-73
2021/06/14 03:39:54;;;;;;;;;;;20.40;69.50;;;;;;5014691;28;1048;-73
2021/06/14 03:42:22;;;;;;;;;;;20.40;68.70;;;;;;5013443;28;1226;-74
2021/06/14 03:44:47;;;;;;;;;;;20.40;68.70;;;;;;5012698;28;1061;-73
2021/06/14 03:47:12;;;;;;;;;;;20.40;68.70;;;;;;5014048;28;1287;-73
2021/06/14 03:49:38;;;;;;;;;;;20.40;68.80;;;;;;5004850;28;2513;-72
2021/06/14 03:52:03;;;;;;;;;;;20.40;68.70;;;;;;5008104;28;2261;-71
2021/06/14 03:54:29;;;;;;;;;;;20.40;68.80;;;;;;5020769;28;1105;-70
2021/06/14 03:56:54;;;;;;;;;;;20.40;68.80;;;;;;5013863;28;1966;-70
2021/06/14 03:59:20;;;;;;;;;;;20.40;68.80;;;;;;5013243;28;1139;-70
2021/06/14 04:01:45;;;;;;;;;;;20.40;68.80;;;;;;5013013;28;1146;-70
2021/06/14 04:04:28;;;;;;;;;;;20.40;68.80;;;;;;5012585;28;1072;-70
2021/06/14 04:06:54;;;;;;;;;;;20.40;68.80;;;;;;5012582;28;1221;-70
2021/06/14 04:09:19;;;;;;;;;;;20.40;68.80;;;;;;5012533;28;1227;-70
2021/06/14 04:11:45;;;;;;;;;;;20.40;68.80;;;;;;5012755;28;1067;-69
2021/06/14 04:14:10;;;;;;;;;;;20.40;68.80;;;;;;5012539;28;1134;-70
2021/06/14 04:16:36;;;;;;;;;;;20.40;68.80;;;;;;5012211;28;1974;-70
2021/06/14 04:19:01;;;;;;;;;;;20.40;68.80;;;;;;5013486;28;1154;-70
2021/06/14 04:21:26;;;;;;;;;;;20.40;68.80;;;;;;5013077;28;1154;-70
2021/06/14 04:23:52;;;;;;;;;;;20.40;68.80;;;;;;5012575;28;1079;-72
2021/06/14 04:26:17;;;;;;;;;;;20.40;68.80;;;;;;5013423;28;1362;-72
2021/06/14 04:28:43;;;;;;;;;;;20.40;68.80;;;;;;5013286;28;1292;-72
2021/06/14 04:31:08;;;;;;;;;;;20.40;68.80;;;;;;5013522;28;1096;-72
2021/06/14 04:33:34;;;;;;;;;;;20.40;68.80;;;;;;5011665;28;1155;-72
2021/06/14 04:36:02;;;;;;;;;;;20.40;68.80;;;;;;5011977;28;1303;-71
2021/06/14 04:38:27;;;;;;;;;;;20.40;68.80;;;;;;5013042;28;1961;-71
2021/06/14 04:40:53;;;;;;;;;;;20.40;68.80;;;;;;5011985;28;1052;-71
2021/06/14 04:43:18;;;;;;;;;;;20.40;68.90;;;;;;5012951;28;1087;-71
2021/06/14 04:45:43;;;;;;;;;;;20.40;68.80;;;;;;5011822;28;1384;-72
2021/06/14 04:48:09;;;;;;;;;;;20.40;68.80;;;;;;5011850;28;1116;-72
2021/06/14 04:50:34;;;;;;;;;;;20.40;68.80;;;;;;5013059;28;1080;-72
2021/06/14 04:53:00;;;;;;;;;;;20.40;68.80;;;;;;5012638;28;1151;-71
2021/06/14 04:55:25;;;;;;;;;;;20.40;68.80;;;;;;5012908;28;1179;-72
2021/06/14 04:57:50;;;;;;;;;;;20.40;68.80;;;;;;5013035;28;1894;-72
2021/06/14 05:00:17;;;;;;;;;;;20.40;68.70;;;;;;5011712;28;1152;-72
2021/06/14 05:02:43;;;;;;;;;;;20.40;68.50;;;;;;5013000;28;1064;-72
2021/06/14 05:05:09;;;;;;;;;;;20.40;68.40;;;;;;5012478;28;1293;-72
2021/06/14 05:07:34;;;;;;;;;;;20.40;68.40;;;;;;5012704;28;1229;-72
2021/06/14 05:10:00;;;;;;;;;;;20.40;68.40;;;;;;5012952;28;1301;-71
2021/06/14 05:12:25;;;;;;;;;;;20.40;68.40;;;;;;5013007;28;1185;-71
2021/06/14 05:14:51;;;;;;;;;;;20.40;68.30;;;;;;5012347;28;1285;-71
2021/06/14 05:17:17;;;;;;;;;;;20.40;68.30;;;;;;5012745;28;1961;-72
2021/06/14 05:19:43;;;;;;;;;;;20.40;68.30;;;;;;5011277;28;1382;-72
2021/06/14 05:22:08;;;;;;;;;;;20.40;68.40;;;;;;5011510;28;1199;-72
2021/06/14 05:24:34;;;;;;;;;;;20.40;68.40;;;;;;5012414;28;1170;-72
2021/06/14 05:26:59;;;;;;;;;;;20.40;68.30;;;;;;5012804;28;1287;-72
2021/06/14 05:29:24;;;;;;;;;;;20.40;68.30;;;;;;5015366;28;1244;-72
2021/06/14 05:31:50;;;;;;;;;;;20.40;68.30;;;;;;5016602;28;1534;-70
2021/06/14 05:34:15;;;;;;;;;;;20.40;68.30;;;;;;5016159;28;1233;-72
2021/06/14 05:36:41;;;;;;;;;;;20.40;68.30;;;;;;5016153;28;1903;-72
2021/06/14 05:39:06;;;;;;;;;;;20.40;68.30;;;;;;5015077;28;1156;-72
2021/06/14 05:41:32;;;;;;;;;;;20.40;68.50;;;;;;4995665;28;1172;-73
2021/06/14 05:43:57;;;;;;;;;;;20.40;68.30;;;;;;5014772;28;1151;-71
2021/06/14 05:46:23;;;;;;;;;;;20.40;68.30;;;;;;5016279;28;1330;-72
2021/06/14 05:48:48;;;;;;;;;;;20.40;68.30;;;;;;5016225;28;1115;-72
2021/06/14 05:51:14;;;;;;;;;;;20.40;68.40;;;;;;5016027;28;1083;-71
2021/06/14 05:53:39;;;;;;;;;;;20.40;68.50;;;;;;5015920;28;1132;-72
2021/06/14 05:56:04;;;;;;;;;;;20.40;68.40;;;;;;5016162;28;1290;-72
2021/06/14 05:58:30;;;;;;;;;;;20.40;68.50;;;;;;5014824;28;1902;-71
2021/06/14 06:00:55;;;;;;;;;;;20.40;68.30;;;;;;5014803;28;1085;-72
2021/06/14 06:03:21;;;;;;;;;;;20.40;68.40;;;;;;5015854;28;1108;-71
2021/06/14 06:05:46;;;;;;;;;;;20.40;68.40;;;;;;5014363;28;1491;-71
2021/06/14 06:08:12;;;;;;;;;;;20.40;68.50;;;;;;5015765;28;1178;-71
2021/06/14 06:10:37;;;;;;;;;;;20.40;68.40;;;;;;5015748;28;1076;-72
2021/06/14 06:13:02;;;;;;;;;;;20.40;68.60;;;;;;5015374;28;1212;-71
2021/06/14 06:15:28;;;;;;;;;;;20.40;68.70;;;;;;5014254;28;1194;-71
2021/06/14 06:17:53;;;;;;;;;;;20.40;68.40;;;;;;5015245;28;1906;-72
2021/06/14 06:20:19;;;;;;;;;;;20.40;68.40;;;;;;5015481;28;1182;-73
2021/06/14 06:22:44;;;;;;;;;;;20.40;68.30;;;;;;5015611;28;1087;-73
2021/06/14 06:25:14;;;;;;;;;;;20.40;68.50;;;;;;5014196;28;1269;-71
2021/06/14 06:27:39;;;;;;;;;;;20.40;68.40;;;;;;5014371;28;1283;-72
2021/06/14 06:30:05;;;;;;;;;;;20.40;68.50;;;;;;5009662;28;1819;-70
2021/06/14 06:32:30;;;;;;;;;;;20.40;68.30;;;;;;5014338;28;1402;-70
2021/06/14 06:34:56;;;;;;;;;;;20.40;68.50;;;;;;5014845;28;1077;-70
2021/06/14 06:37:21;;;;;;;;;;;20.40;68.40;;;;;;5015032;28;1898;-71
2021/06/14 06:39:47;;;;;;;;;;;20.40;68.40;;;;;;5014305;28;1084;-71
2021/06/14 06:42:12;;;;;;;;;;;20.40;68.40;;;;;;5015106;28;1084;-72
2021/06/14 06:44:38;;;;;;;;;;;20.40;68.60;;;;;;5014978;28;1084;-71
2021/06/14 06:47:04;;;;;;;;;;;20.40;68.50;;;;;;5015247;28;1354;-73
2021/06/14 06:49:30;;;;;;;;;;;20.40;68.60;;;;;;5013728;28;1165;-73
2021/06/14 06:51:55;;;;;;;;;;;20.40;68.40;;;;;;5014792;28;1049;-72
2021/06/14 06:54:21;;;;;;;;;;;20.40;68.60;;;;;;5013645;28;1128;-72
2021/06/14 06:56:49;;;;;;;;;;;20.40;68.50;;;;;;5015177;28;1910;-74
2021/06/14 06:59:14;;;;;;;;;;;20.40;68.30;;;;;;5013670;28;1231;-73
2021/06/14 07:01:40;;;;;;;;;;;20.40;68.30;;;;;;5013751;28;1230;-73
2021/06/14 07:04:05;;;;;;;;;;;20.40;68.30;;;;;;5014399;28;1150;-73
2021/06/14 07:06:31;;;;;;;;;;;20.40;68.30;;;;;;5013614;28;1263;-73
2021/06/14 07:08:57;;;;;;;;;;;20.40;68.20;;;;;;5009442;28;1095;-73
2021/06/14 07:11:23;;;;;;;;;;;20.40;68.20;;;;;;5005312;28;1272;-73
2021/06/14 07:13:48;;;;;;;;;;;20.40;68.30;;;;;;5014535;28;1044;-74
2021/06/14 07:16:14;;;;;;;;;;;20.40;68.10;;;;;;5014431;28;1297;-73
2021/06/14 07:18:39;;;;;;;;;;;20.40;68.10;;;;;;5013229;28;1969;-73
2021/06/14 07:21:05;;;;;;;;;;;20.40;68.10;;;;;;5013059;28;1160;-73
2021/06/14 07:23:30;;;;;;;;;;;20.40;68.10;;;;;;5014278;28;1096;-74
2021/06/14 07:25:55;;;;;;;;;;;20.40;68.10;;;;;;5013195;28;1273;-74
2021/06/14 07:28:21;;;;;;;;;;;20.40;68.10;;;;;;5014526;28;1080;-74
2021/06/14 07:30:46;;;;;;;;;;;20.40;68.10;;;;;;5013351;28;1172;-73
2021/06/14 07:33:12;;;;;;;;;;;20.40;68.10;;;;;;5013925;28;1064;-74
2021/06/14 07:35:37;;;;;;;;;;;20.50;68.10;;;;;;5014105;28;1287;-72
2021/06/14 07:38:03;;;;;;;;;;;20.40;68.00;;;;;;5016375;28;1906;-72
2021/06/14 07:40:29;;;;;;;;;;;20.40;68.00;;;;;;5015114;28;1000;-71
2021/06/14 07:42:54;;;;;;;;;;;20.40;68.00;;;;;;5013980;28;1052;-72
2021/06/14 07:45:25;;;;;;;;;;;20.40;68.00;;;;;;5014028;28;1056;-73
2021/06/14 07:47:51;;;;;;;;;;;20.50;68.10;;;;;;5012741;28;1315;-72
2021/06/14 07:50:17;;;;;;;;;;;20.50;68.00;;;;;;4996592;28;1354;-72
2021/06/14 07:52:42;;;;;;;;;;;20.40;68.00;;;;;;5014112;28;1327;-73
2021/06/14 07:55:08;;;;;;;;;;;20.40;68.00;;;;;;5012650;28;1191;-72
2021/06/14 07:57:34;;;;;;;;;;;20.50;68.10;;;;;;5014164;28;1902;-72
2021/06/14 07:59:59;;;;;;;;;;;20.40;68.00;;;;;;5013894;28;1143;-73
2021/06/14 08:02:25;;;;;;;;;;;20.40;68.00;;;;;;5012462;28;1108;-73
2021/06/14 08:04:50;;;;;;;;;;;20.40;68.00;;;;;;5012341;28;1096;-73
2021/06/14 08:07:15;;;;;;;;;;;20.50;68.10;;;;;;5013674;28;1212;-71
2021/06/14 08:09:41;;;;;;;;;;;20.40;68.00;;;;;;5013593;28;1135;-73
2021/06/14 08:12:07;;;;;;;;;;;20.40;67.90;;;;;;5012575;28;1367;-73
2021/06/14 08:14:32;;;;;;;;;;;20.40;67.90;;;;;;5009716;28;1378;-73
2021/06/14 08:17:00;;;;;;;;;;;20.50;67.90;;;;;;5021425;28;1898;-72
2021/06/14 08:19:34;;;;;;;;;;;20.40;67.80;;;;;;5016531;28;1427;-74
2021/06/14 08:25:08;;;;;;;;;;;20.50;67.90;;;;;;4989368;28;1454;-74
2021/06/14 08:27:35;;;;;;;;;;;20.40;67.90;;;;;;5014225;28;1454;-74
2021/06/14 08:30:00;;;;;;;;;;;20.40;67.90;;;;;;4995957;28;1361;-74
2021/06/14 08:32:26;;;;;;;;;;;20.40;67.90;;;;;;5015737;28;1660;-74
2021/06/14 08:34:51;;;;;;;;;;;20.50;68.00;;;;;;5017035;28;1052;-74
2021/06/14 08:37:17;;;;;;;;;;;20.50;68.00;;;;;;5016457;28;1964;-72
2021/06/14 08:39:42;;;;;;;;;;;20.40;67.90;;;;;;5016142;28;1366;-74
2021/06/14 08:42:08;;;;;;;;;;;20.40;67.90;;;;;;5015848;28;1370;-74
2021/06/14 08:44:33;;;;;;;;;;;20.40;67.80;;;;;;5015058;28;1437;-73
2021/06/14 08:46:58;;;;;;;;;;;20.50;67.80;;;;;;4993447;28;1453;-73
2021/06/14 08:49:24;;;;;;;;;;;20.40;67.80;;;;;;5003692;28;1458;-73
2021/06/14 08:51:50;;;;;;;;;;;20.40;67.90;;;;;;5011957;28;1446;-73
2021/06/14 08:54:15;;;;;;;;;;;20.40;67.90;;;;;;5011767;28;1578;-73
2021/06/14 08:56:41;;;;;;;;;;;20.40;67.90;;;;;;5011790;28;1973;-73
2021/06/14 08:59:06;;;;;;;;;;;20.40;67.90;;;;;;5013671;28;1103;-73
2021/06/14 09:01:31;;;;;;;;;;;20.50;68.00;;;;;;5006810;28;1663;-74
2021/06/14 09:03:57;;;;;;;;;;;20.50;68.10;;;;;;5016768;28;1302;-75
2021/06/14 09:06:22;;;;;;;;;;;20.50;68.20;;;;;;5020619;28;1456;-74
2021/06/14 09:08:55;;;;;;;;;;;20.40;68.30;;;;;;5020387;28;1150;-74
2021/06/14 09:11:20;;;;;;;;;;;20.50;68.40;;;;;;5019124;28;1462;-74
2021/06/14 09:13:46;;;;;;;;;;;20.50;68.50;;;;;;5020593;28;1758;-74
2021/06/14 09:16:13;;;;;;;;;;;20.50;68.50;;;;;;5023495;28;1278;-74
2021/06/14 09:18:38;;;;;;;;;;;20.50;68.60;;;;;;5027154;28;1951;-72
2021/06/14 09:21:05;;;;;;;;;;;20.50;68.70;;;;;;5015762;28;1386;-74
2021/06/14 09:23:49;;;;;;;;;;;20.50;68.60;;;;;;5010441;28;1281;-73
2021/06/14 09:26:31;;;;;;;;;;;20.50;68.40;;;;;;5006533;28;1437;-73
2021/06/14 09:29:01;;;;;;;;;;;20.50;68.30;;;;;;5019306;28;1091;-73
2021/06/14 09:31:29;;;;;;;;;;;20.50;68.50;;;;;;5013331;28;1176;-73
2021/06/14 09:33:54;;;;;;;;;;;20.50;68.60;;;;;;5014033;28;1319;-73
2021/06/14 09:36:20;;;;;;;;;;;20.50;68.60;;;;;;5018847;28;1328;-74
2021/06/14 09:38:45;;;;;;;;;;;20.50;68.70;;;;;;5001085;28;1910;-73
2021/06/14 09:41:12;;;;;;;;;;;20.50;68.80;;;;;;4991976;28;1128;-73
2021/06/14 09:43:37;;;;;;;;;;;20.50;68.80;;;;;;5015756;28;788;-73
2021/06/14 09:46:04;;;;;;;;;;;20.50;68.90;;;;;;5018370;28;1281;-73
2021/06/14 09:48:30;;;;;;;;;;;20.50;68.90;;;;;;5001515;28;1269;-73
2021/06/14 09:50:56;;;;;;;;;;;20.50;69.60;;;;;;5017781;28;1187;-73
2021/06/14 09:53:22;;;;;;;;;;;20.50;68.70;;;;;;5017741;28;1124;-72
2021/06/14 09:55:49;;;;;;;;;;;20.50;68.80;;;;;;5019059;28;1369;-73
2021/06/14 09:58:14;;;;;;;;;;;20.50;68.90;;;;;;5017761;28;1902;-73
2021/06/14 10:00:46;;;;;;;;;;;20.50;68.90;;;;;;5017799;28;1348;-73
2021/06/14 10:03:11;;;;;;;;;;;20.50;68.90;;;;;;5018688;28;1053;-74
2021/06/14 10:05:42;;;;;;;;;;;20.50;68.90;;;;;;4997995;28;1362;-73
2021/06/14 10:08:08;;;;;;;;;;;20.50;68.70;;;;;;5016071;28;1090;-73
2021/06/14 10:10:37;;;;;;;;;;;20.50;68.40;;;;;;5017767;28;1080;-73
2021/06/14 10:13:02;;;;;;;;;;;20.50;68.90;;;;;;5018036;28;1207;-72
2021/06/14 10:15:32;;;;;;;;;;;20.50;69.00;;;;;;5014201;28;1457;-72
2021/06/14 10:17:57;;;;;;;;;;;20.50;69.20;;;;;;5015637;28;1902;-73
2021/06/14 10:20:24;;;;;;;;;;;20.50;69.20;;;;;;5020685;28;1733;-73
2021/06/14 10:22:50;;;;;;;;;;;20.50;69.20;;;;;;5010586;28;1913;-73
2021/06/14 10:25:16;;;;;;;;;;;20.50;69.40;;;;;;5021900;28;1333;-73
2021/06/14 10:27:41;;;;;;;;;;;20.50;69.40;;;;;;5016023;28;1288;-73
2021/06/14 10:30:07;;;;;;;;;;;20.50;69.40;;;;;;5000965;28;2385;-73
2021/06/14 10:32:34;;;;;;;;;;;20.50;69.30;;;;;;5018666;28;1838;-73
2021/06/14 10:34:59;;;;;;;;;;;20.50;69.10;;;;;;5021547;28;1530;-73
2021/06/14 10:37:25;;;;;;;;;;;20.50;69.10;;;;;;5014435;28;1902;-72
2021/06/14 10:39:54;;;;;;;;;;;20.50;69.40;;;;;;5016123;28;1079;-73
2021/06/14 10:42:20;;;;;;;;;;;20.50;69.40;;;;;;5016013;28;1174;-72
2021/06/14 10:44:45;;;;;;;;;;;20.50;69.30;;;;;;5015404;28;1064;-71
2021/06/14 10:47:11;;;;;;;;;;;20.50;69.20;;;;;;5015036;28;1283;-72
2021/06/14 10:49:36;;;;;;;;;;;20.50;69.40;;;;;;5014304;28;1108;-72
2021/06/14 10:52:03;;;;;;;;;;;20.50;69.50;;;;;;5014079;28;1175;-72
2021/06/14 10:54:36;;;;;;;;;;;20.50;69.40;;;;;;5015195;28;1071;-72
2021/06/14 10:57:04;;;;;;;;;;;20.50;69.60;;;;;;5015120;28;1965;-71
2021/06/14 10:59:35;;;;;;;;;;;20.50;69.70;;;;;;5014169;28;1088;-70
2021/06/14 11:02:03;;;;;;;;;;;20.50;70.00;;;;;;5015932;28;1068;-71
2021/06/14 11:04:29;;;;;;;;;;;20.50;69.90;;;;;;5013616;28;1115;-71
2021/06/14 11:06:55;;;;;;;;;;;20.60;70.10;;;;;;5014889;28;1190;-72
2021/06/14 11:09:21;;;;;;;;;;;20.60;70.20;;;;;;5013671;28;1065;-73
2021/06/14 11:11:52;;;;;;;;;;;20.60;70.40;;;;;;5014684;28;1092;-73
2021/06/14 11:14:27;;;;;;;;;;;20.60;70.40;;;;;;5014432;28;1099;-73
2021/06/14 11:16:52;;;;;;;;;;;20.60;70.60;;;;;;5014684;28;1894;-73
2021/06/14 11:19:18;;;;;;;;;;;20.60;70.60;;;;;;5013507;28;1136;-71
2021/06/14 11:21:52;;;;;;;;;;;20.60;70.70;;;;;;5014535;28;1158;-73
2021/06/14 11:24:18;;;;;;;;;;;20.60;70.70;;;;;;5013167;28;1194;-73
2021/06/14 11:26:43;;;;;;;;;;;20.60;70.50;;;;;;5012601;28;1272;-72
2021/06/14 11:29:09;;;;;;;;;;;20.60;70.50;;;;;;5014418;28;1120;-70
2021/06/14 11:31:35;;;;;;;;;;;20.60;70.50;;;;;;5014332;28;1064;-71
2021/06/14 11:34:03;;;;;;;;;;;20.60;70.60;;;;;;4993281;28;1128;-71
2021/06/14 11:36:29;;;;;;;;;;;20.60;70.60;;;;;;5004226;28;1492;-71
2021/06/14 11:38:55;;;;;;;;;;;20.60;70.80;;;;;;5025290;28;2060;-72
2021/06/14 11:41:28;;;;;;;;;;;20.60;70.90;;;;;;5026692;28;1108;-72
2021/06/14 11:44:12;;;;;;;;;;;20.60;70.90;;;;;;5018060;28;1408;-71
2021/06/14 11:46:40;;;;;;;;;;;20.60;71.00;;;;;;5008430;28;1396;-71
2021/06/14 11:49:09;;;;;;;;;;;20.60;71.10;;;;;;5005581;28;1474;-72
2021/06/14 11:51:34;;;;;;;;;;;20.60;71.00;;;;;;5003930;28;1435;-73
2021/06/14 11:54:00;;;;;;;;;;;20.60;70.70;;;;;;5014652;28;1431;-72
2021/06/14 11:56:26;;;;;;;;;;;20.60;70.70;;;;;;5005546;28;1415;-73
2021/06/14 11:58:52;;;;;;;;;;;20.70;70.40;;;;;;5004209;28;1963;-72
2021/06/14 12:01:22;;;;;;;;;;;20.60;70.60;;;;;;4987999;28;1321;-72
2021/06/14 12:03:53;;;;;;;;;;;20.70;70.70;;;;;;4986621;28;1302;-71
2021/06/14 12:06:22;;;;;;;;;;;20.60;70.50;;;;;;5007592;28;1426;-71
2021/06/14 12:08:47;;;;;;;;;;;20.60;70.60;;;;;;5011774;28;1049;-72
2021/06/14 12:11:12;;;;;;;;;;;20.70;70.60;;;;;;5013653;28;1116;-72
2021/06/14 12:13:38;;;;;;;;;;;20.70;70.70;;;;;;5013355;28;1158;-72
2021/06/14 12:16:04;;;;;;;;;;;20.70;70.40;;;;;;5013596;28;1358;-72
2021/06/14 12:18:29;;;;;;;;;;;20.60;70.00;;;;;;5013373;28;1898;-71
2021/06/14 12:20:56;;;;;;;;;;;20.70;70.30;;;;;;5012085;28;1076;-71
2021/06/14 12:23:21;;;;;;;;;;;20.70;70.50;;;;;;5009098;28;1596;-71
2021/06/14 12:25:48;;;;;;;;;;;20.60;70.50;;;;;;5010098;28;1715;-70
2021/06/14 12:28:14;;;;;;;;;;;20.60;70.60;;;;;;5012436;28;1411;-70
2021/06/14 12:30:40;;;;;;;;;;;20.60;70.70;;;;;;5013084;28;1127;-71
2021/06/14 12:33:05;;;;;;;;;;;20.70;70.80;;;;;;5012520;28;1188;-70
2021/06/14 12:35:31;;;;;;;;;;;20.70;70.40;;;;;;5011436;28;1202;-71
2021/06/14 12:37:56;;;;;;;;;;;20.70;70.50;;;;;;5012044;28;1966;-72
2021/06/14 12:40:22;;;;;;;;;;;20.70;70.70;;;;;;5013246;28;1704;-71
2021/06/14 12:42:55;;;;;;;;;;;20.60;70.60;;;;;;5013317;28;1660;-71
2021/06/14 12:45:21;;;;;;;;;;;20.60;70.60;;;;;;5013370;28;1398;-72
2021/06/14 12:47:48;;;;;;;;;;;20.70;70.70;;;;;;5013091;28;1229;-70
2021/06/14 12:50:14;;;;;;;;;;;20.70;70.80;;;;;;5013205;28;1363;-71
2021/06/14 12:52:40;;;;;;;;;;;20.70;70.50;;;;;;5012861;28;1328;-71
2021/06/14 12:55:06;;;;;;;;;;;20.70;70.70;;;;;;5011604;28;1355;-71
2021/06/14 12:57:39;;;;;;;;;;;20.70;71.00;;;;;;5013407;28;1898;-71
2021/06/14 13:00:07;;;;;;;;;;;20.80;71.20;;;;;;5011825;28;1422;-71
2021/06/14 13:02:32;;;;;;;;;;;20.80;71.00;;;;;;5013046;28;1158;-70
2021/06/14 13:05:07;;;;;;;;;;;20.90;70.80;;;;;;5011699;28;1333;-70
2021/06/14 13:07:32;;;;;;;;;;;20.90;70.30;;;;;;5007398;28;1393;-71
2021/06/14 13:10:00;;;;;;;;;;;20.80;69.90;;;;;;5006561;28;1333;-70
2021/06/14 13:12:29;;;;;;;;;;;20.80;69.60;;;;;;5006235;28;1669;-70
2021/06/14 13:15:05;;;;;;;;;;;20.80;69.60;;;;;;5011374;28;1422;-70
2021/06/14 13:17:30;;;;;;;;;;;20.80;69.80;;;;;;5012878;28;1946;-70
2021/06/14 13:19:56;;;;;;;;;;;20.80;69.90;;;;;;5013090;28;1032;-69
2021/06/14 13:22:21;;;;;;;;;;;20.80;70.30;;;;;;5008032;28;1591;-71
2021/06/14 13:24:48;;;;;;;;;;;20.80;70.40;;;;;;5004978;28;1386;-72
2021/06/14 13:27:13;;;;;;;;;;;20.80;70.60;;;;;;5006915;28;1591;-73
2021/06/14 13:29:39;;;;;;;;;;;20.80;70.50;;;;;;5000763;28;1653;-71
2021/06/14 13:32:20;;;;;;;;;;;20.80;70.70;;;;;;5012822;28;1422;-71
2021/06/14 13:34:52;;;;;;;;;;;20.70;70.50;;;;;;5011510;28;1624;-69
2021/06/14 13:37:17;;;;;;;;;;;20.70;70.30;;;;;;5033642;23;2392;-65
2021/06/14 13:39:43;;;;;;;;;;;20.70;70.20;;;;;;5003953;28;1353;-64
2021/06/14 13:42:10;;;;;;;;;;;20.70;70.40;;;;;;5011528;28;1383;-65
2021/06/14 13:44:35;;;;;;;;;;;20.70;70.70;;;;;;5011580;28;1673;-65
2021/06/14 13:47:01;;;;;;;;;;;20.70;70.80;;;;;;5002654;28;2147;-65
2021/06/14 13:49:28;;;;;;;;;;;20.70;70.70;;;;;;4994362;28;1282;-65
2021/06/14 13:51:54;;;;;;;;;;;20.80;70.70;;;;;;4995374;28;1431;-65
2021/06/14 13:54:19;;;;;;;;;;;20.70;70.60;;;;;;5005743;28;1441;-64
2021/06/14 13:56:46;;;;;;;;;;;20.70;70.70;;;;;;5003482;28;1957;-64
2021/06/14 13:59:21;;;;;;;;;;;20.80;71.40;;;;;;4994030;28;1208;-65
2021/06/14 14:01:47;;;;;;;;;;;20.70;70.60;;;;;;4989347;28;1385;-64
2021/06/14 14:04:15;;;;;;;;;;;20.70;70.60;;;;;;5001826;28;1193;-64
2021/06/14 14:06:41;;;;;;;;;;;20.70;70.80;;;;;;4981309;28;2290;-66
2021/06/14 14:09:06;;;;;;;;;;;20.70;70.90;;;;;;4991776;28;1256;-64
2021/06/14 14:11:32;;;;;;;;;;;20.70;71.20;;;;;;4990187;28;1195;-67
2021/06/14 14:14:01;;;;;;;;;;;20.70;71.30;;;;;;4995658;28;1233;-69
2021/06/14 14:16:26;;;;;;;;;;;20.70;71.20;;;;;;4996903;28;1292;-68
2021/06/14 14:18:52;;;;;;;;;;;20.70;71.30;;;;;;4994108;28;1906;-67
2021/06/14 14:21:17;;;;;;;;;;;20.80;70.90;;;;;;4995045;28;1188;-68
2021/06/14 14:23:42;;;;;;;;;;;20.70;70.60;;;;;;4990970;28;1213;-69
2021/06/14 14:26:08;;;;;;;;;;;20.70;70.50;;;;;;4990574;28;1512;-68
2021/06/14 14:28:33;;;;;;;;;;;20.80;70.50;;;;;;4996632;28;1248;-70